Terminal Aerodrome Forecast
Issued by NWS

Home | Current Version | Previous Version | Text Only | Print | Product List | Glossary On
Versions: 1 2 3 4 5 6 7 8 9 10 11 12 13 14
000
FTUS44 KLZK 251700
TAFBPK
TAF
KBPK 251735Z 2518/2618 27005KT P6SM SKC
     FM260000 00000KT P6SM SKC
     FM260800 14003KT 3SM BR SCT250
     FM261000 00000KT 2SM BR SCT002
      TEMPO 2610/2613 1SM BR BKN002
     FM261500 16008KT P6SM SCT250=

USA.gov is the U.S. government's official web portal to all federal, state and local government web resources and services.